Архив погоды в Семячике

Метеограмма Семячик
Среда, 17 Июля
Время местн. Темп Ветер Видим Явления Облачность нижн/средн/верх Атм. давл. Влжн Точка росы ВНГО R Сост. почвы Tg s
Напр Скр Прв ур.ст ур.м изм
09:00 +16.1° Ю 1 - 50 км - переменная облачность 757 760 +0.2 79% +12.4° - 0 Сухая (без трещин) - -
06:00 +13.6° штиль 0 - 20 км - облачно с прояснениями 757 760 +0.2 83% +10.8° - - - - -
03:00 +14.7° С 1 - 20 км - ясно 757 760 -0.1 78% +10.9° более 2.5 км - - - -
00:00 +14.7° С 2 - 20 км - ясно 757 760 +1.2 79% +11.1° более 2.5 км - - - -
Вторник, 16 Июля
Время местн. Темп Ветер Видим Явления Облачность нижн/средн/верх Атм. давл. Влжн Точка росы ВНГО R Сост. почвы Tg s
Напр Скр Прв ур.ст ур.м изм
21:00 +16.8° Ю,Ю-З 1 - более 50 км - облачно с прояснениями 756 758 +0.5 65% +10.2° более 2.5 км 0 - - -
18:00 +20.8° Ю,Ю-З 7 - более 50 км - ясно 756 758 -0.2 45% +8.6° более 2.5 км - - - -
15:00 +20.8° Ю,Ю-З 7 - 50 км - ясно 756 758 -0.1 49% +9.7° более 2.5 км - - - -
12:00 +20.6° Ю,Ю-З 6 - 50 км - ясно 756 758 +0.5 48% +9.2° более 2.5 км - - - -
09:00 +23.5° С-З 7 16 более 50 км - ясно 755 758 +0.8 37% +7.9° более 2.5 км 0 Сухая (без трещин) +16° -
03:00 +23.4° С-З 8 12 20 км - облачно с прояснениями 754 757 0 32% +5.8° более 2.5 км - - - -
00:00 +23.9° С-З 6 10 20 км - переменная облачность 754 757 +0.5 40% +9.5° более 2.5 км - - - -
Понедельник, 15 Июля
Время местн. Темп Ветер Видим Явления Облачность нижн/средн/верх Атм. давл. Влжн Точка росы ВНГО R Сост. почвы Tg s
Напр Скр Прв ур.ст ур.м изм
21:00 +19.7° С,С-З 2 - 50 км - переменная облачность 754 756 +0.4 72% +14.5° - 0 - - -
18:00 +22.4° Ю 4 - 50 км - облачно с прояснениями 753 756 -0.3 54% +12.6° более 2.5 км - - - -
15:00 +19.2° Ю 3 - более 50 км - переменная облачность 754 756 -0.5 69% +13.4° более 2.5 км - - - -
12:00 +20.4° Ю 4 - 50 км небо без изменений {туман} переменная облачность 754 756 -0.8 59% +12.1° более 2.5 км - - - -
09:00 +13.4° Ю 2 - 50 км туман переменная облачность 755 757 -0.5 92% +12.1° более 2.5 км 0 Влажная (без луж) - -
06:00 +9° Ю 4 - 200 м туман неба не видно 756 758 -0.6 98% +8.7° - - - - -
03:00 +9.3° Ю-З 2 - 20 км - облачно 756 759 -0.8 97% +8.9° более 2.5 км - - - -
00:00 +10.7° С 1 - 20 км - облачно 757 759 -0.1 97% +10.2° более 2.5 км - - - -
Воскресенье, 14 Июля
Время местн. Темп Ветер Видим Явления Облачность нижн/средн/верх Атм. давл. Влжн Точка росы ВНГО R Сост. почвы Tg s
Напр Скр Прв ур.ст ур.м изм
21:00 +11.7° С,С-В 2 - более 50 км - переменная облачность 757 759 -0.2 92% +10.5° 600 м 0 - - -
18:00 +15° С-В 3 - 50 км - ясно 757 760 -0.6 82% +11.9° более 2.5 км - - - -
15:00 +14.3° Ю 2 - 50 км - переменная облачность 758 760 -0.5 82% +11.3° 1.5 км - - - -
12:00 +13.4° Ю 3 - более 50 км - ясно 758 761 -0.5 86% +11.1° более 2.5 км - - - -
09:00 +10.9° Ю 4 - 50 км - ясно 759 761 +0.2 88% +9° более 2.5 км 0 Сухая (без трещин) - -
03:00 +9.8° Ю,Ю-З 4 - 20 км - облачно 759 761 -0.2 91% +8.4° 1 км - - - -
00:00 +9.8° Ю-З 2 - 20 км - облачно 759 761 +0.5 92% +8.6° 1 км - - - -